Time,TemperatureF,DewpointF,PressureIn,WindDirection,WindDirectionDegrees,WindSpeedMPH,WindSpeedGustMPH,Humidity,HourlyPrecipIn,Conditions,Clouds,dailyrainin,SoftwareType,DateUTC
2013-08-04 00:01:00,57.6,51.4,30.10,NW,315,0.0,0.0,80,0.00,,,0.00,WUHU21636XXSP,2013-08-04 04:01:00,
2013-08-04 00:02:00,57.4,51.4,30.10,NW,315,0.0,0.0,81,0.00,,,0.00,WUHU21636XXSP,2013-08-04 04:02:00,
2013-08-04 00:07:00,56.8,50.9,30.10,NW,315,0.0,0.0,81,0.00,,,0.00,WUHU21636XXSP,2013-08-04 04:07:00,
2013-08-04 00:12:00,56.3,50.7,30.10,NW,315,2.9,7.6,82,0.00,,,0.00,WUHU21636XXSP,2013-08-04 04:12:00,
2013-08-04 00:17:00,56.1,50.9,30.10,NW,315,0.0,7.6,83,0.00,,,0.00,WUHU21636XXSP,2013-08-04 04:17:00,
2013-08-04 00:22:00,55.9,50.8,30.10,NW,315,0.0,2.9,83,0.00,,,0.00,WUHU21636XXSP,2013-08-04 04:22:00,
2013-08-04 00:27:00,55.8,51.1,30.10,NW,315,2.4,2.4,84,0.00,,,0.00,WUHU21636XXSP,2013-08-04 04:27:00,
2013-08-04 00:32:00,55.9,51.1,30.10,NW,315,0.0,2.4,85,0.00,,,0.00,WUHU21636XXSP,2013-08-04 04:32:00,
2013-08-04 00:37:00,55.9,51.1,30.10,NW,315,0.0,2.4,85,0.00,,,0.00,WUHU21636XXSP,2013-08-04 04:37:00,
2013-08-04 00:42:00,55.9,51.1,30.10,NNW,337,0.0,0.0,85,0.00,,,0.00,WUHU21636XXSP,2013-08-04 04:42:00,
2013-08-04 00:47:00,55.8,51.3,30.10,NW,315,1.7,3.1,85,0.00,,,0.00,WUHU21636XXSP,2013-08-04 04:47:00,
2013-08-04 00:52:00,55.6,51.1,30.11,NW,315,2.9,3.1,85,0.00,,,0.00,WUHU21636XXSP,2013-08-04 04:52:00,
2013-08-04 00:57:00,55.6,51.1,30.10,NW,315,0.0,2.9,84,0.00,,,0.00,WUHU21636XXSP,2013-08-04 04:57:00,
2013-08-04 01:02:00,55.2,50.4,30.11,NW,315,0.0,2.9,84,0.00,,,0.00,WUHU21636XXSP,2013-08-04 05:02:00,
2013-08-04 01:07:00,55.0,50.4,30.10,NW,315,0.0,0.0,84,0.00,,,0.00,WUHU21636XXSP,2013-08-04 05:07:00,
2013-08-04 01:12:00,54.7,50.2,30.10,NW,315,0.0,0.0,85,0.00,,,0.00,WUHU21636XXSP,2013-08-04 05:12:00,
2013-08-04 01:17:00,54.5,50.0,30.11,NW,315,0.0,0.0,86,0.00,,,0.00,WUHU21636XXSP,2013-08-04 05:17:00,
2013-08-04 01:22:00,54.3,49.8,30.11,NW,315,0.0,0.0,85,0.00,,,0.00,WUHU21636XXSP,2013-08-04 05:22:00,
2013-08-04 01:27:00,54.1,50.0,30.11,NW,315,0.0,0.0,86,0.00,,,0.00,WUHU21636XXSP,2013-08-04 05:27:00,
2013-08-04 01:32:00,53.8,49.6,30.11,NW,315,0.0,0.0,86,0.00,,,0.00,WUHU21636XXSP,2013-08-04 05:32:00,
2013-08-04 01:37:00,53.8,49.6,30.11,NW,315,0.0,0.0,86,0.00,,,0.00,WUHU21636XXSP,2013-08-04 05:37:00,
2013-08-04 01:42:00,53.4,49.3,30.11,NW,315,0.0,0.0,86,0.00,,,0.00,WUHU21636XXSP,2013-08-04 05:42:00,
2013-08-04 01:47:00,53.1,48.9,30.11,NW,315,0.0,0.0,86,0.00,,,0.00,WUHU21636XXSP,2013-08-04 05:47:00,
2013-08-04 01:52:00,52.7,48.6,30.11,NW,315,0.0,0.0,86,0.00,,,0.00,WUHU21636XXSP,2013-08-04 05:52:00,
2013-08-04 01:57:00,52.5,48.4,30.11,NW,315,0.0,0.0,86,0.00,,,0.00,WUHU21636XXSP,2013-08-04 05:57:00,
2013-08-04 02:02:00,52.5,48.4,30.11,NW,315,0.0,0.0,87,0.00,,,0.00,WUHU21636XXSP,2013-08-04 06:02:00,
2013-08-04 02:07:00,52.3,48.4,30.11,NW,315,0.0,0.0,87,0.00,,,0.00,WUHU21636XXSP,2013-08-04 06:07:00,
2013-08-04 02:12:00,52.2,48.2,30.11,NW,315,0.0,0.0,87,0.00,,,0.00,WUHU21636XXSP,2013-08-04 06:12:00,
2013-08-04 02:17:00,51.6,47.7,30.11,NW,315,0.0,0.0,87,0.00,,,0.00,WUHU21636XXSP,2013-08-04 06:17:00,
2013-08-04 02:22:00,51.6,47.7,30.11,NW,315,0.0,0.0,88,0.00,,,0.00,WUHU21636XXSP,2013-08-04 06:22:00,
2013-08-04 02:27:00,51.4,47.8,30.11,NW,315,0.0,0.0,88,0.00,,,0.00,WUHU21636XXSP,2013-08-04 06:27:00,
2013-08-04 02:32:00,51.4,47.8,30.11,NW,315,0.0,7.6,88,0.00,,,0.00,WUHU21636XXSP,2013-08-04 06:32:00,
2013-08-04 02:37:00,51.4,47.8,30.11,NW,315,0.0,7.6,88,0.00,,,0.00,WUHU21636XXSP,2013-08-04 06:37:00,
2013-08-04 02:42:00,51.4,47.8,30.11,NW,315,0.0,0.0,88,0.00,,,0.00,WUHU21636XXSP,2013-08-04 06:42:00,
2013-08-04 02:47:00,51.4,47.8,30.11,NW,315,0.0,0.0,88,0.00,,,0.00,WUHU21636XXSP,2013-08-04 06:47:00,
2013-08-04 02:52:00,51.4,47.8,30.12,NW,315,0.0,0.0,88,0.00,,,0.00,WUHU21636XXSP,2013-08-04 06:52:00,
2013-08-04 02:57:00,51.4,47.8,30.11,NW,315,0.0,0.0,88,0.00,,,0.00,WUHU21636XXSP,2013-08-04 06:57:00,
2013-08-04 03:02:00,51.4,47.8,30.12,NW,315,0.0,0.0,89,0.00,,,0.00,WUHU21636XXSP,2013-08-04 07:02:00,
2013-08-04 03:07:00,51.4,47.8,30.12,NW,315,0.0,0.0,89,0.00,,,0.00,WUHU21636XXSP,2013-08-04 07:07:00,
2013-08-04 03:12:00,51.4,47.8,30.12,NW,315,0.0,0.0,89,0.00,,,0.00,WUHU21636XXSP,2013-08-04 07:12:00,
2013-08-04 03:17:00,51.4,47.8,30.12,NW,315,0.0,7.6,89,0.00,,,0.00,WUHU21636XXSP,2013-08-04 07:17:00,
2013-08-04 03:22:00,51.4,47.8,30.12,NW,315,0.0,7.6,89,0.00,,,0.00,WUHU21636XXSP,2013-08-04 07:22:00,
2013-08-04 03:27:00,51.6,48.4,30.12,NW,315,0.0,0.0,89,0.00,,,0.00,WUHU21636XXSP,2013-08-04 07:27:00,
2013-08-04 03:32:00,51.6,48.4,30.13,NW,315,0.0,0.0,89,0.00,,,0.00,WUHU21636XXSP,2013-08-04 07:32:00,
2013-08-04 03:37:00,52.0,48.7,30.13,NW,315,0.0,0.0,89,0.00,,,0.00,WUHU21636XXSP,2013-08-04 07:37:00,
2013-08-04 03:42:00,52.0,48.9,30.13,NW,315,0.0,0.0,89,0.00,,,0.00,WUHU21636XXSP,2013-08-04 07:42:00,
2013-08-04 03:47:00,52.3,49.5,30.13,NW,315,0.0,0.0,90,0.00,,,0.00,WUHU21636XXSP,2013-08-04 07:47:00,
2013-08-04 03:52:00,52.3,49.5,30.13,NW,315,0.0,0.0,90,0.00,,,0.00,WUHU21636XXSP,2013-08-04 07:52:00,
2013-08-04 03:57:00,52.5,49.6,30.13,NW,315,0.0,0.0,90,0.00,,,0.00,WUHU21636XXSP,2013-08-04 07:57:00,
2013-08-04 04:02:00,52.5,49.6,30.13,NW,315,0.0,0.0,90,0.00,,,0.00,WUHU21636XXSP,2013-08-04 08:02:00,
2013-08-04 04:07:00,52.5,49.6,30.13,NW,315,0.0,0.0,90,0.00,,,0.00,WUHU21636XXSP,2013-08-04 08:07:00,
2013-08-04 04:12:00,52.5,49.6,30.13,NW,315,0.0,0.0,90,0.00,,,0.00,WUHU21636XXSP,2013-08-04 08:12:00,
2013-08-04 04:17:00,52.3,49.5,30.13,NW,315,0.0,0.0,90,0.00,,,0.00,WUHU21636XXSP,2013-08-04 08:17:00,
2013-08-04 04:22:00,52.2,49.3,30.13,NW,315,0.0,0.0,90,0.00,,,0.00,WUHU21636XXSP,2013-08-04 08:22:00,
2013-08-04 04:27:00,52.0,49.1,30.13,NW,315,0.0,17.0,90,0.00,,,0.00,WUHU21636XXSP,2013-08-04 08:27:00,
2013-08-04 04:32:00,52.0,49.1,30.13,NW,315,0.0,17.0,90,0.00,,,0.00,WUHU21636XXSP,2013-08-04 08:32:00,
2013-08-04 04:37:00,52.0,48.9,30.13,NW,315,0.0,0.0,90,0.00,,,0.00,WUHU21636XXSP,2013-08-04 08:37:00,
2013-08-04 04:42:00,51.6,48.7,30.13,NW,315,0.0,0.0,90,0.00,,,0.00,WUHU21636XXSP,2013-08-04 08:42:00,
2013-08-04 04:47:00,51.6,48.7,30.13,NW,315,0.0,0.0,90,0.00,,,0.00,WUHU21636XXSP,2013-08-04 08:47:00,
2013-08-04 04:52:00,51.4,48.6,30.13,NW,315,0.0,0.0,90,0.00,,,0.00,WUHU21636XXSP,2013-08-04 08:52:00,
2013-08-04 04:57:00,51.4,48.6,30.13,NW,315,0.0,0.0,90,0.00,,,0.00,WUHU21636XXSP,2013-08-04 08:57:00,
2013-08-04 05:02:00,51.1,48.2,30.13,NW,315,0.0,0.0,90,0.00,,,0.00,WUHU21636XXSP,2013-08-04 09:02:00,
2013-08-04 05:07:00,50.7,47.8,30.13,NW,315,0.0,0.0,90,0.00,,,0.00,WUHU21636XXSP,2013-08-04 09:07:00,
2013-08-04 05:12:00,50.5,47.7,30.13,NW,315,0.0,0.0,90,0.00,,,0.00,WUHU21636XXSP,2013-08-04 09:12:00,
2013-08-04 05:17:00,50.5,47.7,30.13,NW,315,0.0,0.0,90,0.00,,,0.00,WUHU21636XXSP,2013-08-04 09:17:00,
2013-08-04 05:22:00,50.2,47.3,30.13,NW,315,0.0,0.0,90,0.00,,,0.00,WUHU21636XXSP,2013-08-04 09:22:00,
2013-08-04 05:27:00,50.0,46.9,30.13,NW,315,0.0,0.0,90,0.00,,,0.00,WUHU21636XXSP,2013-08-04 09:27:00,
2013-08-04 05:32:00,49.8,46.8,30.13,NW,315,0.0,0.0,90,0.00,,,0.00,WUHU21636XXSP,2013-08-04 09:32:00,
2013-08-04 05:37:00,49.8,46.8,30.14,NW,315,0.0,0.0,90,0.00,,,0.00,WUHU21636XXSP,2013-08-04 09:37:00,
2013-08-04 05:42:00,49.5,46.6,30.14,NW,315,0.0,0.0,90,0.00,,,0.00,WUHU21636XXSP,2013-08-04 09:42:00,
2013-08-04 05:47:00,49.3,46.4,30.14,NW,315,0.0,0.0,90,0.00,,,0.00,WUHU21636XXSP,2013-08-04 09:47:00,
2013-08-04 05:52:00,49.1,46.2,30.14,NW,315,0.0,0.0,90,0.00,,,0.00,WUHU21636XXSP,2013-08-04 09:52:00,
2013-08-04 05:57:00,49.1,46.2,30.14,NW,315,0.0,0.0,90,0.00,,,0.00,WUHU21636XXSP,2013-08-04 09:57:00,
2013-08-04 06:02:00,49.1,46.2,30.14,NW,315,0.0,0.0,90,0.00,,,0.00,WUHU21636XXSP,2013-08-04 10:02:00,
2013-08-04 06:07:00,49.1,46.2,30.14,NW,315,0.0,0.0,90,0.00,,,0.00,WUHU21636XXSP,2013-08-04 10:07:00,
2013-08-04 06:12:00,49.1,46.2,30.15,NW,315,0.0,0.0,90,0.00,,,0.00,WUHU21636XXSP,2013-08-04 10:12:00,
2013-08-04 06:17:00,49.1,46.2,30.14,NW,315,0.0,0.0,90,0.00,,,0.00,WUHU21636XXSP,2013-08-04 10:17:00,
2013-08-04 06:22:00,49.3,46.4,30.14,NW,315,0.0,0.0,90,0.00,,,0.00,WUHU21636XXSP,2013-08-04 10:22:00,
2013-08-04 06:27:00,49.1,46.2,30.14,NW,315,0.0,0.0,90,0.00,,,0.00,WUHU21636XXSP,2013-08-04 10:27:00,
2013-08-04 06:32:00,48.7,45.9,30.14,NW,315,0.0,0.0,90,0.00,,,0.00,WUHU21636XXSP,2013-08-04 10:32:00,
2013-08-04 06:37:00,48.6,45.7,30.14,NW,315,0.0,0.0,90,0.00,,,0.00,WUHU21636XXSP,2013-08-04 10:37:00,
2013-08-04 06:42:00,48.4,45.5,30.15,NW,315,0.0,0.0,90,0.00,,,0.00,WUHU21636XXSP,2013-08-04 10:42:00,
2013-08-04 06:47:00,48.2,45.5,30.15,NW,315,0.0,0.0,90,0.00,,,0.00,WUHU21636XXSP,2013-08-04 10:47:00,
2013-08-04 06:52:00,48.0,45.3,30.15,NW,315,0.0,0.0,90,0.00,,,0.00,WUHU21636XXSP,2013-08-04 10:52:00,
2013-08-04 06:57:00,48.4,45.5,30.15,NW,315,0.0,0.0,90,0.00,,,0.00,WUHU21636XXSP,2013-08-04 10:57:00,
2013-08-04 07:02:00,48.4,45.5,30.16,NW,315,0.0,0.0,90,0.00,,,0.00,WUHU21636XXSP,2013-08-04 11:02:00,
2013-08-04 07:07:00,48.6,45.7,30.16,NW,315,0.0,0.0,90,0.00,,,0.00,WUHU21636XXSP,2013-08-04 11:07:00,
2013-08-04 07:12:00,48.6,45.7,30.16,NW,315,0.0,0.0,90,0.00,,,0.00,WUHU21636XXSP,2013-08-04 11:12:00,
2013-08-04 07:17:00,48.6,45.7,30.16,NW,315,0.0,0.0,90,0.00,,,0.00,WUHU21636XXSP,2013-08-04 11:17:00,
2013-08-04 07:22:00,48.6,45.7,30.16,NW,315,0.0,0.0,90,0.00,,,0.00,WUHU21636XXSP,2013-08-04 11:22:00,
2013-08-04 07:27:00,48.6,45.7,30.16,NW,315,0.0,0.0,90,0.00,,,0.00,WUHU21636XXSP,2013-08-04 11:27:00,
2013-08-04 07:32:00,48.7,45.9,30.16,NW,315,0.0,0.0,90,0.00,,,0.00,WUHU21636XXSP,2013-08-04 11:32:00,
2013-08-04 07:37:00,48.9,46.0,30.16,WSW,247,0.0,0.0,90,0.00,,,0.00,WUHU21636XXSP,2013-08-04 11:37:00,
2013-08-04 07:42:00,49.3,46.4,30.16,WSW,247,0.0,0.0,90,0.00,,,0.00,WUHU21636XXSP,2013-08-04 11:42:00,
2013-08-04 07:47:00,49.8,46.9,30.17,WSW,247,0.0,0.0,90,0.00,,,0.00,WUHU21636XXSP,2013-08-04 11:47:00,
2013-08-04 07:52:00,51.1,48.2,30.17,West,270,0.0,0.0,90,0.00,,,0.00,WUHU21636XXSP,2013-08-04 11:52:00,
2013-08-04 07:57:00,52.5,49.6,30.17,West,270,0.0,0.0,90,0.00,,,0.00,WUHU21636XXSP,2013-08-04 11:57:00,
2013-08-04 08:02:00,53.4,50.2,30.17,West,270,0.0,0.0,89,0.00,,,0.00,WUHU21636XXSP,2013-08-04 12:02:00,
2013-08-04 08:07:00,53.8,50.5,30.17,West,270,0.0,0.0,89,0.00,,,0.00,WUHU21636XXSP,2013-08-04 12:07:00,
2013-08-04 08:12:00,54.1,51.3,30.17,West,270,0.0,0.0,90,0.00,,,0.00,WUHU21636XXSP,2013-08-04 12:12:00,
2013-08-04 08:17:00,54.5,51.6,30.17,WNW,292,4.9,4.9,90,0.00,,,0.00,WUHU21636XXSP,2013-08-04 12:17:00,
2013-08-04 08:22:00,54.7,51.4,30.18,NW,315,0.0,4.9,89,0.00,,,0.00,WUHU21636XXSP,2013-08-04 12:22:00,
2013-08-04 08:27:00,54.7,51.4,30.18,NW,315,0.0,4.9,90,0.00,,,0.00,WUHU21636XXSP,2013-08-04 12:27:00,
2013-08-04 08:32:00,56.8,52.2,30.18,NW,315,0.0,0.6,90,0.00,,,0.00,WUHU21636XXSP,2013-08-04 12:32:00,
2013-08-04 08:37:00,55.6,52.7,30.18,NW,315,2.0,2.0,90,0.00,,,0.00,WUHU21636XXSP,2013-08-04 12:37:00,
2013-08-04 08:42:00,55.9,52.7,30.18,WNW,292,0.0,2.0,89,0.00,,,0.00,WUHU21636XXSP,2013-08-04 12:42:00,
2013-08-04 08:47:00,56.1,52.9,30.18,SW,225,2.2,3.5,85,0.00,,,0.00,WUHU21636XXSP,2013-08-04 12:47:00,
2013-08-04 08:52:00,57.2,52.3,30.18,SW,225,0.0,3.5,84,0.00,,,0.00,WUHU21636XXSP,2013-08-04 12:52:00,
2013-08-04 08:57:00,57.7,52.9,30.18,NW,315,0.0,1.3,84,0.00,,,0.00,WUHU21636XXSP,2013-08-04 12:57:00,
2013-08-04 09:02:00,58.6,52.9,30.18,WNW,292,0.0,1.3,80,0.00,,,0.00,WUHU21636XXSP,2013-08-04 13:02:00,
2013-08-04 09:07:00,59.4,51.4,30.18,NW,315,0.0,0.0,75,0.00,,,0.00,WUHU21636XXSP,2013-08-04 13:07:00,
2013-08-04 09:12:00,60.1,52.2,30.18,NW,315,0.0,2.0,75,0.00,,,0.00,WUHU21636XXSP,2013-08-04 13:12:00,
2013-08-04 09:17:00,60.8,51.4,30.18,WSW,247,4.4,4.4,71,0.00,,,0.00,WUHU21636XXSP,2013-08-04 13:17:00,
2013-08-04 09:22:00,61.2,50.0,30.18,South,180,4.2,4.4,67,0.00,,,0.00,WUHU21636XXSP,2013-08-04 13:22:00,
2013-08-04 09:27:00,61.3,51.1,30.18,WNW,292,0.0,4.2,69,0.00,,,0.00,WUHU21636XXSP,2013-08-04 13:27:00,
2013-08-04 09:32:00,61.7,52.2,30.18,North,0,0.0,4.2,69,0.00,,,0.00,WUHU21636XXSP,2013-08-04 13:32:00,
2013-08-04 09:37:00,62.8,52.3,30.18,NW,315,0.0,0.0,69,0.00,,,0.00,WUHU21636XXSP,2013-08-04 13:37:00,
2013-08-04 09:42:00,63.1,52.0,30.18,WNW,292,3.5,3.5,67,0.00,,,0.00,WUHU21636XXSP,2013-08-04 13:42:00,
2013-08-04 09:47:00,63.1,52.0,30.18,WNW,292,0.0,3.5,67,0.00,,,0.00,WUHU21636XXSP,2013-08-04 13:47:00,
2013-08-04 09:52:00,64.0,52.0,30.19,WSW,247,3.3,3.5,65,0.00,,,0.00,WUHU21636XXSP,2013-08-04 13:52:00,
2013-08-04 09:57:00,64.0,52.0,30.19,SSE,157,2.0,3.3,64,0.00,,,0.00,WUHU21636XXSP,2013-08-04 13:57:00,
2013-08-04 10:02:00,64.0,52.0,30.19,SE,135,2.9,3.3,63,0.00,,,0.00,WUHU21636XXSP,2013-08-04 14:02:00,
2013-08-04 10:07:00,64.2,50.5,30.19,SE,135,4.4,4.6,64,0.00,,,0.00,WUHU21636XXSP,2013-08-04 14:07:00,
2013-08-04 10:12:00,63.9,51.8,30.19,South,180,1.3,4.6,65,0.00,,,0.00,WUHU21636XXSP,2013-08-04 14:12:00,
2013-08-04 10:17:00,64.9,53.6,30.19,West,270,0.0,4.4,67,0.00,,,0.00,WUHU21636XXSP,2013-08-04 14:17:00,
2013-08-04 10:22:00,65.5,52.5,30.19,NNW,337,3.3,3.3,61,0.00,,,0.00,WUHU21636XXSP,2013-08-04 14:22:00,
2013-08-04 10:27:00,65.5,51.6,30.19,NW,315,4.0,4.0,61,0.00,,,0.00,WUHU21636XXSP,2013-08-04 14:27:00,
2013-08-04 10:32:00,65.5,51.6,30.20,WNW,292,4.9,4.9,61,0.00,,,0.00,WUHU21636XXSP,2013-08-04 14:32:00,
2013-08-04 10:37:00,64.6,52.0,30.20,NW,315,0.0,4.9,64,0.00,,,0.00,WUHU21636XXSP,2013-08-04 14:37:00,
2013-08-04 10:42:00,64.2,52.5,30.20,NW,315,1.7,4.6,66,0.00,,,0.00,WUHU21636XXSP,2013-08-04 14:42:00,
2013-08-04 10:47:00,64.6,52.0,30.20,NNW,337,0.0,1.7,64,0.00,,,0.00,WUHU21636XXSP,2013-08-04 14:47:00,
2013-08-04 10:52:00,65.5,52.0,30.20,NW,315,2.6,32.6,61,0.00,,,0.00,WUHU21636XXSP,2013-08-04 14:52:00,
2013-08-04 10:57:00,66.2,51.4,30.20,SSE,157,5.1,32.6,59,0.00,,,0.00,WUHU21636XXSP,2013-08-04 14:57:00,
2013-08-04 11:02:00,66.4,51.6,30.20,NW,315,8.9,12.0,59,0.00,,,0.00,WUHU21636XXSP,2013-08-04 15:02:00,
2013-08-04 11:07:00,66.6,51.3,30.20,NW,315,4.2,12.0,58,0.00,,,0.00,WUHU21636XXSP,2013-08-04 15:07:00,
2013-08-04 11:12:00,66.9,52.0,30.21,West,270,0.6,10.5,59,0.00,,,0.00,WUHU21636XXSP,2013-08-04 15:12:00,
2013-08-04 11:17:00,67.1,53.1,30.21,WNW,292,0.0,8.0,61,0.00,,,0.00,WUHU21636XXSP,2013-08-04 15:17:00,
2013-08-04 11:18:00,67.1,53.1,30.21,WNW,292,0.0,8.0,61,0.00,,,0.00,WUHU21636XXSP,2013-08-04 15:18:00,
2013-08-04 11:23:00,67.6,53.2,30.21,NNW,337,0.0,2.9,60,0.00,,,0.00,WUHU21636XXSP,2013-08-04 15:23:00,
2013-08-04 11:28:00,68.2,52.2,30.21,East,90,0.0,2.9,57,0.00,,,0.00,WUHU21636XXSP,2013-08-04 15:28:00,
2013-08-04 11:33:00,67.6,51.8,30.21,NNW,337,0.8,2.6,62,0.00,,,0.00,WUHU21636XXSP,2013-08-04 15:33:00,
2013-08-04 11:38:00,68.0,53.6,30.21,NW,315,5.8,5.8,60,0.00,,,0.00,WUHU21636XXSP,2013-08-04 15:38:00,
2013-08-04 11:43:00,67.6,51.8,30.21,NW,315,4.0,5.8,57,0.00,,,0.00,WUHU21636XXSP,2013-08-04 15:43:00,
2013-08-04 11:48:00,67.8,52.0,30.21,North,0,1.1,5.8,57,0.00,,,0.00,WUHU21636XXSP,2013-08-04 15:48:00,
2013-08-04 11:53:00,68.2,52.2,30.21,NW,315,3.8,3.8,57,0.00,,,0.00,WUHU21636XXSP,2013-08-04 15:53:00,
2013-08-04 11:58:00,68.5,53.6,30.21,WNW,292,0.0,4.4,59,0.00,,,0.00,WUHU21636XXSP,2013-08-04 15:58:00,
2013-08-04 12:03:00,68.9,50.9,30.21,NW,315,4.2,4.4,53,0.00,,,0.00,WUHU21636XXSP,2013-08-04 16:03:00,
2013-08-04 12:08:00,67.8,51.3,30.21,SSW,202,0.0,4.2,56,0.00,,,0.00,WUHU21636XXSP,2013-08-04 16:08:00,
2013-08-04 12:13:00,68.4,53.4,30.21,NNE,22,2.9,4.2,59,0.00,,,0.00,WUHU21636XXSP,2013-08-04 16:13:00,
2013-08-04 12:18:00,69.3,52.7,30.21,NNE,22,0.0,4.2,56,0.00,,,0.00,WUHU21636XXSP,2013-08-04 16:18:00,
2013-08-04 12:23:00,69.4,52.9,30.21,SSW,202,2.4,2.9,54,0.00,,,0.00,WUHU21636XXSP,2013-08-04 16:23:00,
2013-08-04 12:28:00,68.9,51.4,30.21,SSE,157,3.3,4.9,55,0.00,,,0.00,WUHU21636XXSP,2013-08-04 16:28:00,
2013-08-04 12:33:00,69.4,51.4,30.21,SSW,202,4.6,4.9,53,0.00,,,0.00,WUHU21636XXSP,2013-08-04 16:33:00,
2013-08-04 12:38:00,68.0,52.5,30.21,WNW,292,6.7,12.3,58,0.00,,,0.00,WUHU21636XXSP,2013-08-04 16:38:00,
2013-08-04 12:43:00,67.1,52.7,30.20,NW,315,1.1,12.3,60,0.00,,,0.00,WUHU21636XXSP,2013-08-04 16:43:00,
2013-08-04 12:48:00,67.6,53.6,30.20,North,0,3.5,8.5,60,0.00,,,0.00,WUHU21636XXSP,2013-08-04 16:48:00,
2013-08-04 12:53:00,68.0,51.6,30.20,North,0,1.5,3.5,56,0.00,,,0.00,WUHU21636XXSP,2013-08-04 16:53:00,
2013-08-04 12:58:00,68.9,50.0,30.20,SE,135,0.0,3.8,51,0.00,,,0.00,WUHU21636XXSP,2013-08-04 16:58:00,
2013-08-04 13:03:00,70.0,52.5,30.20,NW,315,1.1,12.5,54,0.00,,,0.00,WUHU21636XXSP,2013-08-04 17:03:00,
2013-08-04 13:08:00,70.0,54.3,30.19,NW,315,7.1,12.5,57,0.00,,,0.00,WUHU21636XXSP,2013-08-04 17:08:00,
2013-08-04 13:13:00,69.4,52.0,30.19,NW,315,2.0,12.5,54,0.00,,,0.00,WUHU21636XXSP,2013-08-04 17:13:00,
2013-08-04 13:18:00,68.7,51.8,30.19,NNE,22,0.0,12.5,55,0.00,,,0.00,WUHU21636XXSP,2013-08-04 17:18:00,
2013-08-04 13:23:00,68.5,51.6,30.22,NNW,337,1.3,4.0,55,0.00,,,0.00,WUHU21636XXSP,2013-08-04 17:23:00,
2013-08-04 13:28:00,69.4,52.5,30.19,West,270,0.0,1.3,55,0.00,,,0.00,WUHU21636XXSP,2013-08-04 17:28:00,
2013-08-04 13:33:00,70.3,53.8,30.19,North,0,4.4,10.0,56,0.00,,,0.00,WUHU21636XXSP,2013-08-04 17:33:00,
2013-08-04 13:38:00,70.9,51.6,30.19,NW,315,6.9,12.9,51,0.00,,,0.00,WUHU21636XXSP,2013-08-04 17:38:00,
2013-08-04 13:43:00,71.2,52.2,30.19,NNW,337,5.5,12.9,51,0.00,,,0.00,WUHU21636XXSP,2013-08-04 17:43:00,
2013-08-04 13:48:00,71.6,52.3,30.18,NW,315,2.2,32.4,51,0.00,,,0.00,WUHU21636XXSP,2013-08-04 17:48:00,
2013-08-04 13:53:00,72.1,52.9,30.18,NW,315,2.4,32.4,51,0.00,,,0.00,WUHU21636XXSP,2013-08-04 17:53:00,
2013-08-04 13:58:00,72.0,51.1,30.18,NW,315,11.4,12.7,48,0.00,,,0.00,WUHU21636XXSP,2013-08-04 17:58:00,
2013-08-04 14:03:00,71.6,52.3,30.18,NW,315,0.8,12.9,51,0.00,,,0.00,WUHU21636XXSP,2013-08-04 18:03:00,
2013-08-04 14:08:00,71.1,52.0,30.18,NNE,22,0.0,16.5,51,0.00,,,0.00,WUHU21636XXSP,2013-08-04 18:08:00,
2013-08-04 14:13:00,71.8,51.4,30.18,ESE,112,0.6,16.5,49,0.00,,,0.00,WUHU21636XXSP,2013-08-04 18:13:00,
2013-08-04 14:18:00,71.4,53.1,30.18,NNW,337,4.0,19.0,52,0.00,,,0.00,WUHU21636XXSP,2013-08-04 18:18:00,
2013-08-04 14:23:00,72.1,52.3,30.18,NNW,337,2.2,19.0,48,0.00,,,0.00,WUHU21636XXSP,2013-08-04 18:23:00,
2013-08-04 14:28:00,72.5,50.9,30.18,SSE,157,2.4,5.3,47,0.00,,,0.00,WUHU21636XXSP,2013-08-04 18:28:00,
2013-08-04 14:33:00,73.0,50.9,30.18,NW,315,1.7,11.4,46,0.00,,,0.00,WUHU21636XXSP,2013-08-04 18:33:00,
2013-08-04 14:38:00,72.1,50.5,30.18,NNW,337,3.8,14.7,47,0.00,,,0.00,WUHU21636XXSP,2013-08-04 18:38:00,
2013-08-04 14:42:00,72.3,50.7,30.18,NW,315,5.8,15.8,47,0.00,,,0.00,WUHU21636XXSP,2013-08-04 18:42:00,
2013-08-04 14:48:00,72.7,52.3,30.18,NNE,22,0.0,15.8,49,0.00,,,0.00,WUHU21636XXSP,2013-08-04 18:48:00,
2013-08-04 14:52:00,72.3,52.5,30.18,NNW,337,7.1,15.6,50,0.00,,,0.00,WUHU21636XXSP,2013-08-04 18:52:00,
2013-08-04 14:58:00,72.1,51.8,30.18,NNW,337,6.4,15.6,49,0.00,,,0.00,WUHU21636XXSP,2013-08-04 18:58:00,
2013-08-04 15:02:00,71.1,50.2,30.18,North,0,3.8,19.2,48,0.00,,,0.00,WUHU21636XXSP,2013-08-04 19:02:00,
2013-08-04 15:08:00,70.9,53.2,30.19,WNW,292,1.3,19.2,54,0.00,,,0.00,WUHU21636XXSP,2013-08-04 19:08:00,
2013-08-04 15:13:00,71.2,51.6,30.19,North,0,2.0,15.6,50,0.00,,,0.00,WUHU21636XXSP,2013-08-04 19:13:00,
2013-08-04 15:18:00,71.4,52.2,30.18,NNW,337,2.9,15.6,49,0.00,,,0.00,WUHU21636XXSP,2013-08-04 19:18:00,
2013-08-04 15:22:00,71.4,52.2,30.18,WNW,292,5.1,8.0,51,0.00,,,0.00,WUHU21636XXSP,2013-08-04 19:22:00,
2013-08-04 15:28:00,72.3,52.5,30.18,NNW,337,7.1,12.3,50,0.00,,,0.00,WUHU21636XXSP,2013-08-04 19:28:00,
2013-08-04 15:33:00,71.2,49.8,30.18,NW,315,10.0,15.4,47,0.00,,,0.00,WUHU21636XXSP,2013-08-04 19:33:00,
2013-08-04 15:37:00,71.2,50.4,30.18,NW,315,3.3,15.4,48,0.00,,,0.00,WUHU21636XXSP,2013-08-04 19:37:00,
2013-08-04 15:43:00,72.0,51.6,30.18,WNW,292,10.9,14.7,49,0.00,,,0.00,WUHU21636XXSP,2013-08-04 19:43:00,
2013-08-04 15:48:00,71.4,50.5,30.18,NW,315,1.1,12.3,49,0.00,,,0.00,WUHU21636XXSP,2013-08-04 19:48:00,
2013-08-04 15:53:00,71.4,49.3,30.18,NW,315,4.6,12.3,46,0.00,,,0.00,WUHU21636XXSP,2013-08-04 19:53:00,
2013-08-04 15:58:00,71.8,48.6,30.18,NW,315,3.3,4.6,44,0.00,,,0.00,WUHU21636XXSP,2013-08-04 19:58:00,
2013-08-04 16:03:00,72.3,51.4,30.17,West,270,0.0,4.9,48,0.00,,,0.00,WUHU21636XXSP,2013-08-04 20:03:00,
2013-08-04 16:07:00,72.7,51.6,30.17,WNW,292,3.5,9.6,48,0.00,,,0.00,WUHU21636XXSP,2013-08-04 20:07:00,
2013-08-04 16:13:00,72.7,51.1,30.17,WNW,292,0.4,9.6,47,0.00,,,0.00,WUHU21636XXSP,2013-08-04 20:13:00,
2013-08-04 16:17:00,73.0,51.4,30.17,ESE,112,0.0,7.1,48,0.00,,,0.00,WUHU21636XXSP,2013-08-04 20:17:00,
2013-08-04 16:22:00,73.0,52.5,30.16,NW,315,4.6,4.6,48,0.00,,,0.00,WUHU21636XXSP,2013-08-04 20:22:00,
2013-08-04 16:28:00,71.8,50.9,30.17,WNW,292,2.2,4.6,48,0.00,,,0.00,WUHU21636XXSP,2013-08-04 20:28:00,
2013-08-04 16:32:00,70.9,51.3,30.17,NW,315,0.4,4.6,50,0.00,,,0.00,WUHU21636XXSP,2013-08-04 20:32:00,
2013-08-04 16:38:00,71.1,50.4,30.16,NW,315,10.9,11.8,49,0.00,,,0.00,WUHU21636XXSP,2013-08-04 20:38:00,
2013-08-04 16:43:00,70.7,52.2,30.16,North,0,2.9,11.8,52,0.00,,,0.00,WUHU21636XXSP,2013-08-04 20:43:00,
2013-08-04 16:48:00,71.6,50.2,30.16,NW,315,8.9,13.8,47,0.00,,,0.00,WUHU21636XXSP,2013-08-04 20:48:00,
2013-08-04 16:52:00,71.4,51.8,30.16,NNW,337,7.3,14.0,50,0.00,,,0.00,WUHU21636XXSP,2013-08-04 20:52:00,
2013-08-04 16:58:00,72.0,52.2,30.16,NW,315,2.6,14.0,50,0.00,,,0.00,WUHU21636XXSP,2013-08-04 20:58:00,
2013-08-04 17:02:00,72.5,52.7,30.16,NW,315,6.7,9.6,50,0.00,,,0.00,WUHU21636XXSP,2013-08-04 21:02:00,
2013-08-04 17:08:00,72.7,52.3,30.16,South,180,2.0,7.8,49,0.00,,,0.00,WUHU21636XXSP,2013-08-04 21:08:00,
2013-08-04 17:12:00,72.3,51.4,30.15,NW,315,4.4,7.1,48,0.00,,,0.00,WUHU21636XXSP,2013-08-04 21:12:00,
2013-08-04 17:18:00,72.3,51.4,30.15,WNW,292,0.4,11.1,49,0.00,,,0.00,WUHU21636XXSP,2013-08-04 21:18:00,
2013-08-04 17:22:00,71.6,50.2,30.15,North,0,2.4,12.0,47,0.00,,,0.00,WUHU21636XXSP,2013-08-04 21:22:00,
2013-08-04 17:27:00,72.3,51.4,30.15,NW,315,2.6,12.0,48,0.00,,,0.00,WUHU21636XXSP,2013-08-04 21:27:00,
2013-08-04 17:33:00,72.5,52.2,30.15,North,0,0.0,3.8,49,0.00,,,0.00,WUHU21636XXSP,2013-08-04 21:33:00,
2013-08-04 17:38:00,72.7,51.1,30.15,NW,315,8.2,12.0,47,0.00,,,0.00,WUHU21636XXSP,2013-08-04 21:38:00,
2013-08-04 17:43:00,72.1,50.5,30.15,NW,315,3.3,12.0,47,0.00,,,0.00,WUHU21636XXSP,2013-08-04 21:43:00,
2013-08-04 17:48:00,72.1,50.5,30.15,NNW,337,0.0,9.3,47,0.00,,,0.00,WUHU21636XXSP,2013-08-04 21:48:00,
2013-08-04 17:49:00,72.1,50.5,30.15,NNW,337,0.0,6.7,48,0.00,,,0.00,WUHU21636XXSP,2013-08-04 21:49:00,
2013-08-04 17:53:00,71.2,49.8,30.15,NW,315,2.9,12.0,47,0.00,,,0.00,WUHU21636XXSP,2013-08-04 21:53:00,
2013-08-04 17:59:00,71.2,50.4,30.15,NW,315,0.0,12.0,47,0.00,,,0.00,WUHU21636XXSP,2013-08-04 21:59:00,
2013-08-04 18:03:00,71.2,51.6,30.15,NW,315,3.3,9.1,46,0.00,,,0.00,WUHU21636XXSP,2013-08-04 22:03:00,
2013-08-04 18:09:00,71.2,51.6,30.16,NW,315,0.0,4.6,49,0.00,,,0.00,WUHU21636XXSP,2013-08-04 22:09:00,
2013-08-04 18:13:00,71.1,50.9,30.16,WNW,292,4.9,9.6,49,0.00,,,0.00,WUHU21636XXSP,2013-08-04 22:13:00,
2013-08-04 18:18:00,70.3,49.6,30.16,NW,315,6.0,9.6,48,0.00,,,0.00,WUHU21636XXSP,2013-08-04 22:18:00,
2013-08-04 18:23:00,70.7,51.1,30.15,NW,315,4.4,9.8,50,0.00,,,0.00,WUHU21636XXSP,2013-08-04 22:23:00,
2013-08-04 18:29:00,71.2,50.4,30.15,NW,315,0.4,23.9,48,0.00,,,0.00,WUHU21636XXSP,2013-08-04 22:29:00,
2013-08-04 18:34:00,71.4,50.5,30.15,NNW,337,3.5,23.9,47,0.00,,,0.00,WUHU21636XXSP,2013-08-04 22:34:00,
2013-08-04 18:39:00,71.4,51.1,30.15,NW,315,5.1,10.2,49,0.00,,,0.00,WUHU21636XXSP,2013-08-04 22:39:00,
2013-08-04 18:44:00,70.9,50.0,30.15,NW,315,7.1,10.2,48,0.00,,,0.00,WUHU21636XXSP,2013-08-04 22:44:00,
2013-08-04 18:49:00,70.9,50.7,30.15,NW,315,3.1,9.8,49,0.00,,,0.00,WUHU21636XXSP,2013-08-04 22:49:00,
2013-08-04 18:53:00,70.0,51.4,30.15,NW,315,5.8,12.3,51,0.00,,,0.00,WUHU21636XXSP,2013-08-04 22:53:00,
2013-08-04 18:59:00,70.0,50.9,30.15,West,270,3.8,12.3,51,0.00,,,0.00,WUHU21636XXSP,2013-08-04 22:59:00,
2013-08-04 19:04:00,70.3,51.3,30.15,WNW,292,3.1,8.5,51,0.00,,,0.00,WUHU21636XXSP,2013-08-04 23:04:00,
2013-08-04 19:09:00,70.2,51.1,30.15,NW,315,4.9,9.3,51,0.00,,,0.00,WUHU21636XXSP,2013-08-04 23:09:00,
2013-08-04 19:14:00,69.6,51.1,30.15,NW,315,6.0,11.8,52,0.00,,,0.00,WUHU21636XXSP,2013-08-04 23:14:00,
2013-08-04 19:19:00,68.7,49.8,30.15,NNW,337,3.8,11.8,51,0.00,,,0.00,WUHU21636XXSP,2013-08-04 23:19:00,
2013-08-04 19:24:00,68.9,50.5,30.15,NW,315,1.5,8.2,52,0.00,,,0.00,WUHU21636XXSP,2013-08-04 23:24:00,
2013-08-04 19:28:00,68.7,49.8,30.15,NW,315,4.2,8.2,51,0.00,,,0.00,WUHU21636XXSP,2013-08-04 23:28:00,
2013-08-04 19:34:00,68.7,50.7,30.15,NW,315,0.0,8.2,53,0.00,,,0.00,WUHU21636XXSP,2013-08-04 23:34:00,
2013-08-04 19:38:00,69.4,51.4,30.15,NW,315,1.3,4.9,53,0.00,,,0.00,WUHU21636XXSP,2013-08-04 23:38:00,
2013-08-04 19:44:00,69.4,51.4,30.14,NW,315,3.5,8.0,53,0.00,,,0.00,WUHU21636XXSP,2013-08-04 23:44:00,
2013-08-04 19:48:00,69.1,50.2,30.15,NW,315,3.1,8.0,51,0.00,,,0.00,WUHU21636XXSP,2013-08-04 23:48:00,
2013-08-04 19:54:00,68.7,50.7,30.15,NW,315,5.1,7.3,53,0.00,,,0.00,WUHU21636XXSP,2013-08-04 23:54:00,
2013-08-04 19:59:00,68.2,50.7,30.14,NNW,337,1.7,17.6,54,0.00,,,0.00,WUHU21636XXSP,2013-08-04 23:59:00,
2013-08-04 20:04:00,67.6,50.7,30.14,NNW,337,0.0,17.6,55,0.00,,,0.00,WUHU21636XXSP,2013-08-05 00:04:00,
2013-08-04 20:09:00,67.1,51.3,30.14,NNW,337,2.4,5.3,57,0.00,,,0.00,WUHU21636XXSP,2013-08-05 00:09:00,
2013-08-04 20:14:00,67.1,51.8,30.14,NNW,337,3.3,3.3,58,0.00,,,0.00,WUHU21636XXSP,2013-08-05 00:14:00,
2013-08-04 20:19:00,66.9,51.6,30.14,NNW,337,0.8,3.3,59,0.00,,,0.00,WUHU21636XXSP,2013-08-05 00:19:00,
2013-08-04 20:24:00,67.5,52.5,30.14,NNW,337,0.0,3.3,59,0.00,,,0.00,WUHU21636XXSP,2013-08-05 00:24:00,
2013-08-04 20:28:00,68.0,53.1,30.14,NNW,337,0.0,0.8,59,0.00,,,0.00,WUHU21636XXSP,2013-08-05 00:28:00,
2013-08-04 20:34:00,68.2,53.8,30.14,NNW,337,0.0,0.0,59,0.00,,,0.00,WUHU21636XXSP,2013-08-05 00:34:00,
2013-08-04 20:39:00,68.2,53.8,30.14,NNW,337,0.0,0.0,60,0.00,,,0.00,WUHU21636XXSP,2013-08-05 00:39:00,
2013-08-04 20:44:00,67.5,53.1,30.14,NNW,337,0.0,0.0,60,0.00,,,0.00,WUHU21636XXSP,2013-08-05 00:44:00,
2013-08-04 20:49:00,66.4,52.5,30.14,NNW,337,0.0,0.0,61,0.00,,,0.00,WUHU21636XXSP,2013-08-05 00:49:00,
2013-08-04 20:54:00,65.1,52.2,30.14,NNW,337,0.0,0.0,63,0.00,,,0.00,WUHU21636XXSP,2013-08-05 00:54:00,
2013-08-04 20:59:00,63.1,51.1,30.14,NNW,337,0.0,0.0,65,0.00,,,0.00,WUHU21636XXSP,2013-08-05 00:59:00,
2013-08-04 21:03:00,62.1,50.5,30.13,NNW,337,0.0,0.0,66,0.00,,,0.00,WUHU21636XXSP,2013-08-05 01:03:00,
2013-08-04 21:08:00,61.2,50.0,30.14,NNW,337,0.0,0.0,67,0.00,,,0.00,WUHU21636XXSP,2013-08-05 01:08:00,
2013-08-04 21:13:00,59.9,50.2,30.13,NNW,337,0.0,0.0,70,0.00,,,0.00,WUHU21636XXSP,2013-08-05 01:13:00,
2013-08-04 21:18:00,59.0,49.3,30.13,NNW,337,0.0,0.0,70,0.00,,,0.00,WUHU21636XXSP,2013-08-05 01:18:00,
2013-08-04 21:23:00,58.6,49.3,30.13,NNW,337,0.0,17.6,71,0.00,,,0.00,WUHU21636XXSP,2013-08-05 01:23:00,
2013-08-04 21:28:00,57.7,48.7,30.13,NNW,337,0.0,17.6,72,0.00,,,0.00,WUHU21636XXSP,2013-08-05 01:28:00,
2013-08-04 21:33:00,56.8,48.2,30.13,NNW,337,0.0,0.0,73,0.00,,,0.00,WUHU21636XXSP,2013-08-05 01:33:00,
2013-08-04 21:38:00,56.1,47.8,30.13,NNW,337,0.0,0.0,74,0.00,,,0.00,WUHU21636XXSP,2013-08-05 01:38:00,
2013-08-04 21:43:00,55.6,48.0,30.13,NNW,337,0.0,0.0,76,0.00,,,0.00,WUHU21636XXSP,2013-08-05 01:43:00,
2013-08-04 21:48:00,54.7,47.5,30.13,NNW,337,0.0,0.0,77,0.00,,,0.00,WUHU21636XXSP,2013-08-05 01:48:00,
2013-08-04 21:53:00,54.3,47.5,30.13,NNW,337,0.0,0.0,78,0.00,,,0.00,WUHU21636XXSP,2013-08-05 01:53:00,
2013-08-04 21:58:00,53.8,46.9,30.13,NNW,337,0.0,0.0,78,0.00,,,0.00,WUHU21636XXSP,2013-08-05 01:58:00,
2013-08-04 22:03:00,53.2,46.6,30.13,NNW,337,0.0,0.0,78,0.00,,,0.00,WUHU21636XXSP,2013-08-05 02:03:00,
2013-08-04 22:08:00,52.9,46.9,30.13,NNW,337,0.0,0.0,80,0.00,,,0.00,WUHU21636XXSP,2013-08-05 02:08:00,
2013-08-04 22:13:00,52.5,46.8,30.13,NNW,337,0.0,0.0,80,0.00,,,0.00,WUHU21636XXSP,2013-08-05 02:13:00,
2013-08-04 22:18:00,52.0,46.0,30.13,NNW,337,0.0,0.0,80,0.00,,,0.00,WUHU21636XXSP,2013-08-05 02:18:00,
2013-08-04 22:23:00,51.6,45.9,30.13,NNW,337,0.0,0.0,81,0.00,,,0.00,WUHU21636XXSP,2013-08-05 02:23:00,
2013-08-04 22:28:00,51.6,45.9,30.13,NNW,337,0.0,0.0,81,0.00,,,0.00,WUHU21636XXSP,2013-08-05 02:28:00,
2013-08-04 22:33:00,51.4,46.4,30.13,NNW,337,0.0,0.0,82,0.00,,,0.00,WUHU21636XXSP,2013-08-05 02:33:00,
2013-08-04 22:38:00,51.1,46.0,30.13,NNW,337,0.0,0.0,83,0.00,,,0.00,WUHU21636XXSP,2013-08-05 02:38:00,
2013-08-04 22:43:00,51.1,46.0,30.13,NNW,337,0.0,0.0,84,0.00,,,0.00,WUHU21636XXSP,2013-08-05 02:43:00,
2013-08-04 22:48:00,50.7,46.2,30.13,NNW,337,0.0,0.0,85,0.00,,,0.00,WUHU21636XXSP,2013-08-05 02:48:00,
2013-08-04 22:53:00,50.5,46.0,30.13,NNW,337,0.0,0.0,85,0.00,,,0.00,WUHU21636XXSP,2013-08-05 02:53:00,
2013-08-04 22:59:00,50.4,45.9,30.13,NNW,337,0.0,0.0,85,0.00,,,0.00,WUHU21636XXSP,2013-08-05 02:59:00,
2013-08-04 23:04:00,50.0,45.5,30.13,NNW,337,0.0,0.0,85,0.00,,,0.00,WUHU21636XXSP,2013-08-05 03:04:00,
2013-08-04 23:09:00,49.6,45.1,30.12,NNW,337,0.0,0.0,85,0.00,,,0.00,WUHU21636XXSP,2013-08-05 03:09:00,
2013-08-04 23:13:00,49.5,45.0,30.13,NNW,337,0.0,0.0,85,0.00,,,0.00,WUHU21636XXSP,2013-08-05 03:13:00,
2013-08-04 23:18:00,49.1,45.0,30.13,NNW,337,0.0,0.0,86,0.00,,,0.00,WUHU21636XXSP,2013-08-05 03:18:00,
2013-08-04 23:24:00,49.1,45.0,30.13,NNW,337,0.0,0.0,86,0.00,,,0.00,WUHU21636XXSP,2013-08-05 03:24:00,
2013-08-04 23:29:00,49.1,45.0,30.13,NNW,337,0.0,0.0,86,0.00,,,0.00,WUHU21636XXSP,2013-08-05 03:29:00,
2013-08-04 23:34:00,48.7,45.1,30.13,NNW,337,0.0,0.0,86,0.00,,,0.00,WUHU21636XXSP,2013-08-05 03:34:00,
2013-08-04 23:38:00,48.9,45.1,30.13,NNW,337,0.0,0.0,86,0.00,,,0.00,WUHU21636XXSP,2013-08-05 03:38:00,
2013-08-04 23:43:00,48.9,45.1,30.13,NNW,337,0.0,0.0,87,0.00,,,0.00,WUHU21636XXSP,2013-08-05 03:43:00,
2013-08-04 23:48:00,48.6,44.8,30.13,NNW,337,0.0,0.0,87,0.00,,,0.00,WUHU21636XXSP,2013-08-05 03:48:00,
2013-08-04 23:53:00,48.4,44.6,30.13,NNW,337,0.0,0.0,87,0.00,,,0.00,WUHU21636XXSP,2013-08-05 03:53:00,
2013-08-04 23:59:00,48.0,44.2,30.13,NNW,337,0.0,0.0,87,0.00,,,0.00,WUHU21636XXSP,2013-08-05 03:59:00,